createdAt,value
2022-09-04T00:02:47.164Z,15.70
2022-09-04T00:05:23.586Z,15.80
2022-09-04T00:08:11.785Z,15.80
2022-09-04T00:10:57.268Z,15.70
2022-09-04T00:13:29.103Z,15.80
2022-09-04T00:16:21.689Z,15.90
2022-09-04T00:19:09.552Z,15.80
2022-09-04T00:21:40.009Z,15.90
2022-09-04T00:24:19.320Z,15.80
2022-09-04T00:27:09.607Z,15.90
2022-09-04T00:30:05.839Z,15.80
2022-09-04T00:32:54.954Z,15.80
2022-09-04T00:35:22.411Z,15.80
2022-09-04T00:38:04.896Z,15.80
2022-09-04T00:40:43.577Z,15.80
2022-09-04T00:43:19.167Z,15.90
2022-09-04T00:46:06.992Z,15.80
2022-09-04T00:48:56.674Z,15.80
2022-09-04T00:51:40.472Z,15.80
2022-09-04T00:54:35.522Z,15.70
2022-09-04T00:57:14.218Z,15.60
2022-09-04T01:00:09.494Z,15.60
2022-09-04T01:02:42.616Z,15.60
2022-09-04T01:05:32.707Z,15.50
2022-09-04T01:08:15.846Z,15.50
2022-09-04T01:10:48.438Z,15.50
2022-09-04T01:13:49.289Z,15.40
2022-09-04T01:16:41.779Z,15.40
2022-09-04T01:19:28.117Z,15.40
2022-09-04T01:22:11.518Z,15.40
2022-09-04T01:24:47.104Z,15.40
2022-09-04T01:27:42.072Z,15.40
2022-09-04T01:30:17.635Z,15.30
2022-09-04T01:33:06.416Z,15.30
2022-09-04T01:36:16.705Z,15.30
2022-09-04T01:39:00.003Z,15.30
2022-09-04T01:41:38.509Z,15.30
2022-09-04T01:44:10.360Z,15.30
2022-09-04T01:47:06.725Z,15.30
2022-09-04T01:49:43.559Z,15.30
2022-09-04T01:52:36.537Z,15.30
2022-09-04T01:55:42.479Z,15.20
2022-09-04T01:58:09.925Z,15.30
2022-09-04T02:00:49.561Z,15.20
2022-09-04T02:03:42.038Z,15.30
2022-09-04T02:06:28.461Z,15.30
2022-09-04T02:09:17.803Z,15.30
2022-09-04T02:11:51.403Z,15.30
2022-09-04T02:14:26.110Z,15.20
2022-09-04T02:17:20.850Z,15.20
2022-09-04T02:20:19.206Z,15.30
2022-09-04T02:22:49.459Z,15.20
2022-09-04T02:25:31.618Z,15.20
2022-09-04T02:28:21.751Z,15.10
2022-09-04T02:31:13.495Z,15.10
2022-09-04T02:33:51.581Z,15.10
2022-09-04T02:36:33.908Z,15.10
2022-09-04T02:39:13.835Z,15.20
2022-09-04T02:41:58.629Z,15.20
2022-09-04T02:44:41.506Z,15.20
2022-09-04T02:47:12.490Z,15.20
2022-09-04T02:49:48.560Z,15.20
2022-09-04T02:52:18.984Z,15.20
2022-09-04T02:55:11.903Z,15.20
2022-09-04T02:58:16.338Z,15.30
2022-09-04T03:01:05.360Z,15.20
2022-09-04T03:03:39.130Z,15.30
2022-09-04T03:06:13.492Z,15.20
2022-09-04T03:08:46.097Z,15.20
2022-09-04T03:11:23.924Z,15.30
2022-09-04T03:14:01.679Z,15.30
2022-09-04T03:17:20.328Z,15.30
2022-09-04T03:19:55.401Z,15.30
2022-09-04T03:22:48.756Z,15.30
2022-09-04T03:25:33.494Z,15.30
2022-09-04T03:28:01.861Z,15.30
2022-09-04T03:30:35.448Z,15.30
2022-09-04T03:33:29.367Z,15.30
2022-09-04T03:36:16.827Z,15.20
2022-09-04T03:39:04.224Z,15.30
2022-09-04T03:42:09.592Z,15.30
2022-09-04T03:44:44.712Z,15.30
2022-09-04T03:47:23.797Z,15.20
2022-09-04T03:50:00.005Z,15.30
2022-09-04T03:53:06.196Z,15.30
2022-09-04T03:55:56.585Z,15.30
2022-09-04T03:58:33.326Z,15.30
2022-09-04T04:01:24.684Z,15.30
2022-09-04T04:04:24.977Z,15.40
2022-09-04T04:07:22.511Z,15.40
2022-09-04T04:10:07.167Z,15.40
2022-09-04T04:13:12.386Z,15.40
2022-09-04T04:16:04.110Z,15.30
2022-09-04T04:18:46.496Z,15.30
2022-09-04T04:21:28.171Z,15.30
2022-09-04T04:24:49.213Z,15.30
2022-09-04T04:27:27.653Z,15.20
2022-09-04T04:29:55.397Z,15.30
2022-09-04T04:32:44.076Z,15.20
2022-09-04T04:35:31.940Z,15.30
2022-09-04T04:38:08.785Z,15.20
2022-09-04T04:41:02.284Z,15.30
2022-09-04T04:46:16.540Z,15.20
2022-09-04T04:48:58.846Z,15.20
2022-09-04T04:51:48.200Z,15.20
2022-09-04T04:54:28.797Z,15.30
2022-09-04T04:56:59.810Z,15.20
2022-09-04T04:59:30.382Z,15.20
2022-09-04T05:02:19.304Z,15.20
2022-09-04T05:05:15.012Z,15.20
2022-09-04T05:07:52.438Z,15.30
2022-09-04T05:10:26.039Z,15.20
2022-09-04T05:13:02.549Z,15.20
2022-09-04T05:16:05.142Z,15.30
2022-09-04T05:18:47.463Z,15.30
2022-09-04T05:21:56.359Z,15.30
2022-09-04T05:24:40.997Z,15.20
2022-09-04T05:27:31.869Z,15.20
2022-09-04T05:30:23.213Z,15.10
2022-09-04T05:32:58.930Z,15.20
2022-09-04T05:35:55.333Z,15.20
2022-09-04T05:38:34.000Z,15.20
2022-09-04T05:41:06.327Z,15.20
2022-09-04T05:43:49.035Z,15.20
2022-09-04T05:46:53.685Z,15.20
2022-09-04T05:49:54.455Z,15.30
2022-09-04T05:52:52.203Z,15.30
2022-09-04T05:55:44.548Z,15.20
2022-09-04T05:58:26.924Z,15.30
2022-09-04T06:01:16.170Z,15.30
2022-09-04T06:03:58.455Z,15.40
2022-09-04T06:06:55.987Z,15.30
2022-09-04T06:09:23.533Z,15.30
2022-09-04T06:11:56.434Z,15.30
2022-09-04T06:14:44.060Z,15.30
2022-09-04T06:17:29.615Z,15.30
2022-09-04T06:20:21.169Z,15.20
2022-09-04T06:23:02.937Z,15.30
2022-09-04T06:26:13.686Z,15.20
2022-09-04T06:29:11.204Z,15.20
2022-09-04T06:32:14.864Z,15.20
2022-09-04T06:35:09.635Z,15.10
2022-09-04T06:38:02.063Z,15.20
2022-09-04T06:41:08.696Z,15.10
2022-09-04T06:43:48.814Z,15.10
2022-09-04T06:46:22.191Z,15.00
2022-09-04T06:49:09.795Z,14.90
2022-09-04T06:51:46.060Z,14.80
2022-09-04T06:54:44.029Z,14.80
2022-09-04T06:57:38.420Z,14.80
2022-09-04T07:00:07.172Z,14.90
2022-09-04T07:03:02.717Z,14.90
2022-09-04T07:05:33.074Z,14.90
2022-09-04T07:08:18.965Z,14.90
2022-09-04T07:10:59.619Z,14.90
2022-09-04T07:13:48.330Z,15.00
2022-09-04T07:16:39.596Z,15.00
2022-09-04T07:19:24.458Z,15.10
2022-09-04T07:22:00.574Z,15.00
2022-09-04T07:24:29.687Z,15.00
2022-09-04T07:27:10.946Z,15.10
2022-09-04T07:29:54.835Z,15.10
2022-09-04T07:32:48.563Z,15.10
2022-09-04T07:35:21.275Z,15.10
2022-09-04T07:38:21.354Z,15.30
2022-09-04T07:41:10.611Z,15.20
2022-09-04T07:43:58.355Z,15.30
2022-09-04T07:46:33.585Z,15.30
2022-09-04T07:49:24.010Z,15.40
2022-09-04T07:51:59.963Z,15.40
2022-09-04T07:54:38.220Z,15.50
2022-09-04T07:57:11.638Z,15.50
2022-09-04T08:00:03.897Z,15.50
2022-09-04T08:02:49.191Z,15.40
2022-09-04T08:05:31.750Z,15.50
2022-09-04T08:08:20.967Z,15.40
2022-09-04T08:11:11.115Z,15.50
2022-09-04T08:14:10.203Z,15.50
2022-09-04T08:16:49.997Z,15.50
2022-09-04T08:19:29.603Z,15.50
2022-09-04T08:21:57.611Z,15.50
2022-09-04T08:24:43.530Z,15.40
2022-09-04T08:27:44.218Z,15.50
2022-09-04T08:30:15.447Z,15.50
2022-09-04T08:33:01.775Z,15.50
2022-09-04T08:35:36.786Z,15.50
2022-09-04T08:38:31.773Z,15.50
2022-09-04T08:41:11.238Z,15.50
2022-09-04T08:44:00.143Z,15.60
2022-09-04T08:46:49.468Z,15.60
2022-09-04T08:49:55.286Z,15.60
2022-09-04T08:53:07.380Z,15.60
2022-09-04T08:56:05.399Z,15.50
2022-09-04T08:59:03.413Z,15.60
2022-09-04T09:01:31.075Z,15.60
2022-09-04T09:04:37.141Z,15.50
2022-09-04T09:07:42.343Z,15.60
2022-09-04T09:10:34.530Z,15.60
2022-09-04T09:13:24.322Z,15.60
2022-09-04T09:16:19.712Z,15.60
2022-09-04T09:19:00.900Z,15.60
2022-09-04T09:22:07.221Z,15.60
2022-09-04T09:24:37.438Z,15.60
2022-09-04T09:27:32.253Z,15.70
2022-09-04T09:30:21.047Z,15.70
2022-09-04T09:33:07.310Z,15.60
2022-09-04T09:35:55.961Z,15.70
2022-09-04T09:38:51.035Z,15.60
2022-09-04T09:41:33.746Z,15.70
2022-09-04T09:44:19.245Z,15.60
2022-09-04T09:47:16.467Z,15.70
2022-09-04T09:50:37.501Z,15.70
2022-09-04T09:53:23.577Z,15.70
2022-09-04T09:56:09.994Z,15.70
2022-09-04T09:59:02.346Z,15.80
2022-09-04T10:01:51.675Z,15.70
2022-09-04T10:04:28.599Z,15.70
2022-09-04T10:07:21.349Z,15.70
2022-09-04T10:10:16.469Z,15.70
2022-09-04T10:12:55.673Z,15.70
2022-09-04T10:15:35.387Z,15.70
2022-09-04T10:18:05.606Z,15.70
2022-09-04T10:21:10.627Z,15.70
2022-09-04T10:23:38.089Z,15.60
2022-09-04T10:26:31.959Z,15.70
2022-09-04T10:29:33.220Z,15.70
2022-09-04T10:32:14.353Z,15.60
2022-09-04T10:35:09.577Z,15.70
2022-09-04T10:38:00.254Z,15.70
2022-09-04T10:40:49.292Z,15.70
2022-09-04T10:43:24.566Z,15.60
2022-09-04T10:46:09.725Z,15.60
2022-09-04T10:49:18.617Z,15.60
2022-09-04T10:51:49.566Z,15.60
2022-09-04T10:54:40.680Z,15.50
2022-09-04T10:57:21.590Z,15.60
2022-09-04T11:00:05.913Z,15.50
2022-09-04T11:02:44.875Z,15.50
2022-09-04T11:05:36.595Z,15.50
2022-09-04T11:08:22.918Z,15.40
2022-09-04T11:11:10.649Z,15.40
2022-09-04T11:14:28.978Z,15.40
2022-09-04T11:17:34.405Z,15.40
2022-09-04T11:20:28.247Z,15.50
2022-09-04T11:23:25.221Z,15.40
2022-09-04T11:26:06.085Z,15.50
2022-09-04T11:28:50.363Z,15.30
2022-09-04T11:31:23.998Z,15.50
2022-09-04T11:34:13.936Z,15.40
2022-09-04T11:37:06.024Z,15.40
2022-09-04T11:40:10.956Z,15.30
2022-09-04T11:43:00.553Z,15.20
2022-09-04T11:46:01.794Z,15.20
2022-09-04T11:48:53.387Z,15.10
2022-09-04T11:52:00.215Z,15.30
2022-09-04T11:55:05.120Z,15.30
2022-09-04T11:57:47.836Z,15.30
2022-09-04T12:00:17.327Z,15.40
2022-09-04T12:02:44.773Z,15.30
2022-09-04T12:05:24.928Z,15.30
2022-09-04T12:08:14.772Z,15.40
2022-09-04T12:11:12.361Z,15.40
2022-09-04T12:13:44.048Z,15.50
2022-09-04T12:16:49.044Z,15.50
2022-09-04T12:19:42.373Z,15.50
2022-09-04T12:22:23.565Z,15.50
2022-09-04T12:25:05.841Z,15.60
2022-09-04T12:28:03.844Z,15.70
2022-09-04T12:30:40.192Z,15.60
2022-09-04T12:33:42.872Z,15.60
2022-09-04T12:36:33.391Z,15.60
2022-09-04T12:39:09.606Z,15.70
2022-09-04T12:41:58.766Z,15.70
2022-09-04T12:44:52.051Z,15.60
2022-09-04T12:47:33.241Z,15.70
2022-09-04T12:50:28.181Z,15.70
2022-09-04T12:52:59.347Z,15.70
2022-09-04T12:55:33.469Z,15.80
2022-09-04T12:58:32.661Z,15.80
2022-09-04T13:01:10.545Z,15.70
2022-09-04T13:03:50.205Z,15.70
2022-09-04T13:06:53.386Z,15.70
2022-09-04T13:09:53.291Z,15.70
2022-09-04T13:12:33.001Z,15.80
2022-09-04T13:15:08.677Z,16.00
2022-09-04T13:17:43.528Z,15.90
2022-09-04T13:20:29.273Z,16.10
2022-09-04T13:23:21.119Z,16.30
2022-09-04T13:26:05.486Z,16.30
2022-09-04T13:28:50.919Z,16.40
2022-09-04T13:31:36.251Z,16.60
2022-09-04T13:34:38.149Z,16.50
2022-09-04T13:37:23.410Z,16.60
2022-09-04T13:40:18.728Z,16.60
2022-09-04T13:43:19.712Z,16.60
2022-09-04T13:46:02.997Z,16.70
2022-09-04T13:48:52.180Z,16.60
2022-09-04T13:51:31.022Z,16.50
2022-09-04T13:54:24.923Z,16.50
2022-09-04T13:57:07.687Z,16.60
2022-09-04T13:59:35.565Z,16.40
2022-09-04T14:02:08.407Z,16.50
2022-09-04T14:04:50.867Z,16.40
2022-09-04T14:07:45.298Z,16.40
2022-09-04T14:10:20.080Z,16.40
2022-09-04T14:13:10.767Z,16.40
2022-09-04T14:16:09.139Z,16.40
2022-09-04T14:18:59.298Z,16.30
2022-09-04T14:21:56.543Z,16.30
2022-09-04T14:24:56.391Z,16.40
2022-09-04T14:27:47.571Z,16.40
2022-09-04T14:30:18.145Z,16.50
2022-09-04T14:33:07.399Z,16.40
2022-09-04T14:36:08.177Z,16.50
2022-09-04T14:38:44.951Z,16.40
2022-09-04T14:41:16.457Z,16.40
2022-09-04T14:43:49.848Z,16.50
2022-09-04T14:46:27.209Z,16.40
2022-09-04T14:49:06.358Z,16.50
2022-09-04T14:51:43.688Z,16.50
2022-09-04T14:54:24.263Z,16.30
2022-09-04T14:57:17.865Z,16.40
2022-09-04T14:59:59.597Z,16.40
2022-09-04T15:02:42.731Z,16.40
2022-09-04T15:05:25.608Z,16.40
2022-09-04T15:08:01.745Z,16.50
2022-09-04T15:10:52.304Z,16.50
2022-09-04T15:13:28.998Z,16.50
2022-09-04T15:16:14.384Z,16.60
2022-09-04T15:18:42.038Z,16.70
2022-09-04T15:21:17.317Z,16.70
2022-09-04T15:23:54.664Z,16.70
2022-09-04T15:26:31.046Z,16.80
2022-09-04T15:29:11.600Z,16.90
2022-09-04T15:31:41.945Z,16.70
2022-09-04T15:34:20.238Z,16.90
2022-09-04T15:36:50.002Z,16.70
2022-09-04T15:39:40.115Z,16.70
2022-09-04T15:42:12.407Z,16.60
2022-09-04T15:44:44.576Z,16.60
2022-09-04T15:47:36.629Z,16.60
2022-09-04T15:50:16.361Z,16.60
2022-09-04T15:52:51.186Z,16.70
2022-09-04T15:55:38.452Z,16.70
2022-09-04T15:58:25.465Z,16.70
2022-09-04T16:01:16.805Z,16.70
2022-09-04T16:04:14.414Z,16.80
2022-09-04T16:06:55.266Z,16.90
2022-09-04T16:09:41.375Z,16.90
2022-09-04T16:12:20.610Z,16.90
2022-09-04T16:14:57.078Z,16.80
2022-09-04T16:17:30.249Z,16.80
2022-09-04T16:20:08.886Z,16.70
2022-09-04T16:22:47.621Z,16.70
2022-09-04T16:25:43.156Z,16.80
2022-09-04T16:28:31.733Z,16.70
2022-09-04T16:31:06.471Z,16.70
2022-09-04T16:33:38.041Z,16.60
2022-09-04T16:36:18.827Z,16.60
2022-09-04T16:39:20.921Z,16.60
2022-09-04T16:41:59.017Z,16.60
2022-09-04T16:44:50.184Z,16.50
2022-09-04T16:47:22.727Z,16.50
2022-09-04T16:50:09.075Z,16.60
2022-09-04T16:52:44.428Z,16.60
2022-09-04T16:55:16.064Z,16.60
2022-09-04T16:58:02.676Z,16.60
2022-09-04T17:00:30.899Z,16.60
2022-09-04T17:03:09.075Z,16.60
2022-09-04T17:05:45.852Z,16.60
2022-09-04T17:08:34.706Z,16.60
2022-09-04T17:11:39.959Z,16.60
2022-09-04T17:14:30.859Z,16.50
2022-09-04T17:17:30.096Z,16.40
2022-09-04T17:20:10.334Z,16.50
2022-09-04T17:29:00.455Z,16.50
2022-09-04T17:29:22.445Z,16.50
2022-09-04T17:29:37.327Z,16.50
2022-09-04T17:32:35.489Z,16.50
2022-09-04T17:40:37.985Z,16.40
2022-09-04T17:40:49.260Z,16.50
2022-09-04T17:41:44.697Z,16.40
2022-09-04T17:44:46.811Z,16.40
2022-09-04T17:47:27.554Z,16.40
2022-09-04T17:49:56.311Z,16.40
2022-09-04T17:52:30.961Z,16.40
2022-09-04T17:55:10.820Z,16.40
2022-09-04T17:58:36.319Z,16.30
2022-09-04T18:01:14.602Z,16.30
2022-09-04T18:04:26.862Z,16.30
2022-09-04T18:07:33.520Z,16.30
2022-09-04T18:10:07.072Z,16.30
2022-09-04T18:13:06.188Z,16.20
2022-09-04T18:16:26.974Z,16.30
2022-09-04T18:19:17.296Z,16.30
2022-09-04T18:22:06.439Z,16.30
2022-09-04T18:24:49.492Z,16.30
2022-09-04T18:27:50.147Z,16.20
2022-09-04T18:37:10.333Z,16.30
2022-09-04T18:37:22.282Z,16.20
2022-09-04T18:37:26.561Z,16.30
2022-09-04T18:39:42.947Z,16.20
2022-09-04T18:50:22.788Z,16.10
2022-09-04T18:50:40.194Z,16.20
2022-09-04T18:50:49.098Z,16.10
2022-09-04T18:51:21.194Z,16.10
2022-09-04T18:53:56.706Z,16.20
2022-09-04T18:56:36.072Z,16.10
2022-09-04T18:59:18.454Z,16.10
2022-09-04T19:02:11.686Z,16.10
2022-09-04T19:04:56.036Z,16.00
2022-09-04T19:07:35.055Z,16.00
2022-09-04T19:10:23.388Z,16.00
2022-09-04T19:12:50.802Z,16.00
2022-09-04T19:15:23.901Z,16.10
2022-09-04T19:18:26.976Z,15.90
2022-09-04T19:21:14.196Z,15.90
2022-09-04T19:23:51.499Z,15.90
2022-09-04T19:26:45.839Z,16.00
2022-09-04T19:29:34.596Z,15.90
2022-09-04T19:32:14.234Z,15.90
2022-09-04T19:35:22.828Z,16.00
2022-09-04T19:42:02.914Z,16.00
2022-09-04T19:45:59.278Z,16.00
2022-09-04T19:46:09.037Z,16.00
2022-09-04T19:47:28.707Z,16.00
2022-09-04T19:53:20.350Z,16.00
2022-09-04T19:53:31.293Z,16.10
2022-09-04T19:56:11.063Z,16.00
2022-09-04T19:58:50.159Z,16.00
2022-09-04T20:01:25.667Z,16.00
2022-09-04T20:04:08.686Z,16.00
2022-09-04T20:06:51.410Z,16.00
2022-09-04T20:09:26.212Z,16.00
2022-09-04T20:12:10.790Z,15.90
2022-09-04T20:14:58.639Z,15.90
2022-09-04T20:17:37.996Z,15.90
2022-09-04T20:20:34.955Z,16.00
2022-09-04T20:23:35.072Z,15.90
2022-09-04T20:26:15.969Z,15.90
2022-09-04T20:29:10.600Z,15.90
2022-09-04T20:31:45.522Z,16.00
2022-09-04T20:34:31.654Z,16.00
2022-09-04T20:37:14.078Z,16.00
2022-09-04T20:40:01.349Z,16.00
2022-09-04T20:42:38.050Z,16.00
2022-09-04T20:46:32.911Z,16.10
2022-09-04T20:52:49.132Z,16.00
2022-09-04T20:52:52.408Z,16.00
2022-09-04T20:54:09.789Z,16.00
2022-09-04T21:00:02.734Z,16.00
2022-09-04T21:03:18.785Z,16.10
2022-09-04T21:03:33.682Z,16.00
2022-09-04T21:06:25.373Z,16.10
2022-09-04T21:09:01.755Z,15.90
2022-09-04T21:11:40.922Z,15.90
2022-09-04T21:14:14.709Z,15.90
2022-09-04T21:17:02.555Z,15.90
2022-09-04T21:20:11.267Z,15.90
2022-09-04T21:23:05.546Z,15.90
2022-09-04T21:26:11.552Z,15.90
2022-09-04T21:28:41.757Z,15.90
2022-09-04T21:31:33.539Z,15.80
2022-09-04T21:34:43.641Z,15.80
2022-09-04T21:37:39.935Z,15.80
2022-09-04T21:40:49.812Z,15.90
2022-09-04T21:43:54.451Z,15.90
2022-09-04T21:46:47.107Z,15.90
2022-09-04T21:49:39.126Z,15.90
2022-09-04T21:52:27.598Z,15.90
2022-09-04T22:01:04.790Z,15.90
2022-09-04T22:02:42.744Z,15.90
2022-09-04T22:02:44.607Z,15.90
2022-09-04T22:04:29.309Z,15.90
2022-09-04T22:09:02.193Z,16.00
2022-09-04T22:13:38.173Z,16.00
2022-09-04T22:14:16.778Z,16.00
2022-09-04T22:16:57.714Z,16.00
2022-09-04T22:19:45.860Z,16.00
2022-09-04T22:22:31.396Z,16.10
2022-09-04T22:25:33.020Z,16.00
2022-09-04T22:28:20.921Z,16.00
2022-09-04T22:31:07.030Z,16.00
2022-09-04T22:34:16.124Z,16.00
2022-09-04T22:37:00.718Z,16.10
2022-09-04T22:39:52.591Z,16.00
2022-09-04T22:43:07.831Z,15.90
2022-09-04T22:45:56.953Z,16.00
2022-09-04T22:48:47.862Z,16.00
2022-09-04T22:51:53.087Z,16.10
2022-09-04T22:54:35.397Z,16.00
2022-09-04T22:57:19.463Z,16.00
2022-09-04T23:00:08.161Z,16.00
2022-09-04T23:03:08.836Z,16.00
2022-09-04T23:11:32.078Z,16.00
2022-09-04T23:13:52.518Z,15.90
2022-09-04T23:13:59.441Z,15.90
2022-09-04T23:16:04.483Z,16.00
2022-09-04T23:19:50.201Z,16.00
2022-09-04T23:26:33.072Z,16.00
2022-09-04T23:26:58.823Z,16.00
2022-09-04T23:27:45.377Z,16.00
2022-09-04T23:30:25.566Z,16.10
2022-09-04T23:33:32.735Z,16.00
2022-09-04T23:36:33.172Z,16.00
2022-09-04T23:39:01.249Z,16.10
2022-09-04T23:41:53.713Z,16.00
2022-09-04T23:44:30.751Z,16.00
2022-09-04T23:47:47.326Z,16.00
2022-09-04T23:50:27.175Z,16.00
2022-09-04T23:53:20.272Z,16.00
2022-09-04T23:56:05.053Z,16.10
2022-09-04T23:59:12.429Z,16.00
